SVA1015 HEAT-OEMA
Flight info
| Callsign | SVA1015 |
|---|---|
| Flight time | N/A |
| Altitude | 36000 |
| Route | ASPEK1A ASPEK DCT NABED V608 BOTIX/N0478F380 V608 HGD/N0476F370 M872 EVANO J852 BOVET |
| Aircraft | B77W/H-SDE1E2E3FGHIJ2J3J4J5M1RWXY/LB1D1 |
Departure
| Time | 2026-04-30 19:49 |
|---|---|
| Airport | Asyut International Airport (HEAT) |
Arrival
| Time | N/A |
|---|---|
| Airport | Prince Mohammad Bin Abdulaziz Airport (OEMA) |
| Time | Latitude | Longitude | Altitude | Speed | Heading |
|---|---|---|---|---|---|
| 2026-04-30 19:28 | 27.04971 | 31.01544 | 769 ft | 0 kts | 41° |
| 2026-04-30 19:42 | 27.04969 | 31.01542 | 769 ft | 2 kts | 42° |
| 2026-04-30 19:42 | 27.04966 | 31.01540 | 769 ft | 3 kts | 40° |
| 2026-04-30 19:42 | 27.04953 | 31.01526 | 769 ft | 3 kts | 60° |
| 2026-04-30 19:43 | 27.04947 | 31.01513 | 769 ft | 3 kts | 91° |
| 2026-04-30 19:43 | 27.04948 | 31.01504 | 769 ft | 3 kts | 114° |
| 2026-04-30 19:43 | 27.04957 | 31.01487 | 769 ft | 3 kts | 132° |
| 2026-04-30 19:44 | 27.04974 | 31.01467 | 768 ft | 0 kts | 130° |
| 2026-04-30 19:45 | 27.03798 | 31.02340 | 788 ft | 0 kts | 310° |
| 2026-04-30 19:48 | 27.03872 | 31.02241 | 786 ft | 60 kts | 310° |
| 2026-04-30 19:48 | 27.04391 | 31.01545 | 775 ft | 167 kts | 310° |
| 2026-04-30 19:48 | 27.05290 | 31.00404 | 1278 ft | 201 kts | 313° |
| 2026-04-30 19:49 | 27.06229 | 30.99245 | 2476 ft | 201 kts | 311° |
| 2026-04-30 19:49 | 27.08072 | 30.96482 | 3875 ft | 241 kts | 310° |
| 2026-04-30 19:49 | 27.09409 | 30.95299 | 4780 ft | 250 kts | 339° |
| 2026-04-30 19:50 | 27.11121 | 30.95035 | 5948 ft | 253 kts | 1° |
| 2026-04-30 19:50 | 27.12890 | 30.95282 | 6725 ft | 261 kts | 4° |
| 2026-04-30 19:50 | 27.14675 | 30.95735 | 7077 ft | 270 kts | 22° |
| 2026-04-30 19:50 | 27.16110 | 30.97161 | 7066 ft | 285 kts | 55° |
| 2026-04-30 19:51 | 27.16935 | 30.99167 | 7090 ft | 286 kts | 62° |
| 2026-04-30 19:51 | 27.17765 | 31.01201 | 7087 ft | 286 kts | 59° |
| 2026-04-30 19:51 | 27.18683 | 31.03169 | 7073 ft | 284 kts | 57° |
| 2026-04-30 19:51 | 27.19663 | 31.05076 | 7069 ft | 282 kts | 55° |
| 2026-04-30 19:52 | 27.20688 | 31.06958 | 7063 ft | 279 kts | 54° |
| 2026-04-30 19:52 | 27.21707 | 31.08791 | 7075 ft | 277 kts | 53° |
| 2026-04-30 19:52 | 27.22730 | 31.10624 | 7077 ft | 277 kts | 53° |
| 2026-04-30 19:52 | 27.23705 | 31.12509 | 7047 ft | 282 kts | 65° |
| 2026-04-30 19:53 | 27.23950 | 31.14723 | 7240 ft | 295 kts | 95° |
| 2026-04-30 19:53 | 27.23356 | 31.16950 | 8126 ft | 303 kts | 108° |
| 2026-04-30 19:53 | 27.22631 | 31.19187 | 9153 ft | 304 kts | 107° |
| 2026-04-30 19:53 | 27.21908 | 31.21409 | 9842 ft | 307 kts | 108° |
| 2026-04-30 19:54 | 27.21158 | 31.23703 | 10088 ft | 313 kts | 108° |
| 2026-04-30 19:54 | 27.20411 | 31.25999 | 10077 ft | 317 kts | 108° |
| 2026-04-30 19:54 | 27.19649 | 31.28344 | 10062 ft | 317 kts | 108° |
| 2026-04-30 19:54 | 27.18899 | 31.30659 | 10074 ft | 313 kts | 108° |
| 2026-04-30 19:55 | 27.18160 | 31.32934 | 10044 ft | 310 kts | 108° |
| 2026-04-30 19:55 | 27.17421 | 31.35215 | 10052 ft | 311 kts | 108° |
| 2026-04-30 19:55 | 27.16689 | 31.37494 | 10047 ft | 311 kts | 108° |
| 2026-04-30 19:55 | 27.15950 | 31.39786 | 10043 ft | 311 kts | 108° |
| 2026-04-30 19:56 | 27.15216 | 31.42060 | 10059 ft | 311 kts | 108° |
| 2026-04-30 19:56 | 27.14473 | 31.44356 | 10044 ft | 312 kts | 108° |
| 2026-04-30 19:56 | 27.13737 | 31.46629 | 10043 ft | 312 kts | 108° |
| 2026-04-30 19:56 | 27.13280 | 31.48972 | 10040 ft | 303 kts | 86° |
| 2026-04-30 19:57 | 27.13608 | 31.51304 | 10233 ft | 315 kts | 73° |
| 2026-04-30 19:57 | 27.14158 | 31.53835 | 10504 ft | 349 kts | 73° |
| 2026-04-30 19:57 | 27.14778 | 31.56610 | 10786 ft | 380 kts | 73° |
| 2026-04-30 19:57 | 27.15426 | 31.59535 | 11609 ft | 394 kts | 74° |
| 2026-04-30 19:58 | 27.16081 | 31.62541 | 12732 ft | 400 kts | 74° |
| 2026-04-30 19:58 | 27.16744 | 31.65623 | 13889 ft | 408 kts | 74° |
| 2026-04-30 19:58 | 27.17410 | 31.68731 | 14854 ft | 419 kts | 74° |
| 2026-04-30 19:58 | 27.18100 | 31.71973 | 15840 ft | 429 kts | 74° |
| 2026-04-30 19:59 | 27.18803 | 31.75274 | 16853 ft | 438 kts | 74° |
| 2026-04-30 19:59 | 27.19515 | 31.78621 | 17822 ft | 446 kts | 74° |
| 2026-04-30 19:59 | 27.20980 | 31.85529 | 19643 ft | 464 kts | 74° |
| 2026-04-30 20:00 | 27.21731 | 31.89081 | 20532 ft | 472 kts | 74° |
| 2026-04-30 20:00 | 27.22494 | 31.92695 | 21396 ft | 479 kts | 74° |
| 2026-04-30 20:00 | 27.23270 | 31.96372 | 22203 ft | 487 kts | 74° |
| 2026-04-30 20:00 | 27.24058 | 32.00110 | 22958 ft | 495 kts | 74° |
| 2026-04-30 20:01 | 27.25661 | 32.07740 | 24331 ft | 510 kts | 74° |
| 2026-04-30 20:01 | 27.26478 | 32.11633 | 25024 ft | 516 kts | 74° |
| 2026-04-30 20:01 | 27.27310 | 32.15610 | 25751 ft | 521 kts | 74° |
| 2026-04-30 20:02 | 27.28949 | 32.23568 | 27169 ft | 530 kts | 76° |
| 2026-04-30 20:02 | 27.29485 | 32.27716 | 27775 ft | 538 kts | 82° |
| 2026-04-30 20:03 | 27.29559 | 32.36224 | 28881 ft | 551 kts | 93° |
| 2026-04-30 20:03 | 27.29216 | 32.40514 | 29400 ft | 556 kts | 94° |
| 2026-04-30 20:03 | 27.28837 | 32.44857 | 29892 ft | 559 kts | 94° |
| 2026-04-30 20:03 | 27.28456 | 32.49216 | 30354 ft | 563 kts | 94° |
| 2026-04-30 20:04 | 27.28084 | 32.53599 | 30938 ft | 562 kts | 94° |
| 2026-04-30 20:04 | 27.27727 | 32.57977 | 31546 ft | 561 kts | 93° |
| 2026-04-30 20:04 | 27.27382 | 32.62348 | 32118 ft | 561 kts | 93° |
| 2026-04-30 20:05 | 27.26703 | 32.71108 | 33194 ft | 562 kts | 93° |
| 2026-04-30 20:05 | 27.26365 | 32.75443 | 33715 ft | 561 kts | 93° |
| 2026-04-30 20:05 | 27.25676 | 32.84187 | 34763 ft | 561 kts | 94° |
| 2026-04-30 20:06 | 27.25327 | 32.88563 | 35249 ft | 561 kts | 94° |
| 2026-04-30 20:06 | 27.24978 | 32.92934 | 35751 ft | 560 kts | 94° |
| 2026-04-30 20:06 | 27.24630 | 32.97268 | 35976 ft | 564 kts | 95° |
| 2026-04-30 20:06 | 27.24272 | 33.01703 | 35935 ft | 566 kts | 95° |
| 2026-04-30 20:07 | 27.23563 | 33.10435 | 35927 ft | 560 kts | 95° |
| 2026-04-30 20:08 | 27.22493 | 33.23506 | 35935 ft | 557 kts | 95° |
| 2026-04-30 20:08 | 27.21776 | 33.32179 | 35928 ft | 557 kts | 95° |
| 2026-04-30 20:09 | 27.21062 | 33.40814 | 35946 ft | 558 kts | 95° |
| 2026-04-30 20:09 | 27.19979 | 33.53838 | 35941 ft | 560 kts | 95° |
| 2026-04-30 20:10 | 27.18882 | 33.66892 | 35936 ft | 561 kts | 95° |
| 2026-04-30 20:11 | 27.17306 | 33.79900 | 35935 ft | 560 kts | 104° |
| 2026-04-30 20:11 | 27.14881 | 33.88207 | 35937 ft | 557 kts | 114° |
| 2026-04-30 20:12 | 27.10446 | 34.00259 | 35935 ft | 558 kts | 114° |
| 2026-04-30 20:13 | 27.07543 | 34.08325 | 35935 ft | 558 kts | 114° |
| 2026-04-30 20:13 | 27.04668 | 34.16392 | 35936 ft | 558 kts | 114° |
| 2026-04-30 20:14 | 27.01773 | 34.24472 | 35934 ft | 557 kts | 114° |
| 2026-04-30 20:14 | 26.98873 | 34.32554 | 35925 ft | 558 kts | 114° |
| 2026-04-30 20:15 | 26.96955 | 34.37906 | 35924 ft | 558 kts | 114° |
| 2026-04-30 20:15 | 26.93084 | 34.48684 | 35938 ft | 558 kts | 115° |
| 2026-04-30 20:16 | 26.90185 | 34.56731 | 35947 ft | 557 kts | 115° |
| 2026-04-30 20:16 | 26.87282 | 34.64771 | 35942 ft | 558 kts | 115° |
| 2026-04-30 20:17 | 26.84356 | 34.72856 | 35936 ft | 559 kts | 115° |
| 2026-04-30 20:17 | 26.81452 | 34.80870 | 35935 ft | 558 kts | 115° |
| 2026-04-30 20:18 | 26.78526 | 34.88930 | 35934 ft | 559 kts | 115° |
| 2026-04-30 20:18 | 26.75589 | 34.96990 | 35936 ft | 559 kts | 115° |
| 2026-04-30 20:19 | 26.72644 | 35.05028 | 35937 ft | 559 kts | 115° |
| 2026-04-30 20:19 | 26.69677 | 35.13105 | 35932 ft | 559 kts | 115° |
| 2026-04-30 20:20 | 26.66726 | 35.21134 | 35918 ft | 560 kts | 115° |
| 2026-04-30 20:20 | 26.63766 | 35.29173 | 35916 ft | 559 kts | 115° |
| 2026-04-30 20:21 | 26.60800 | 35.37213 | 35916 ft | 555 kts | 116° |
| 2026-04-30 20:21 | 26.57890 | 35.45088 | 35917 ft | 548 kts | 116° |
| 2026-04-30 20:22 | 26.54949 | 35.52958 | 35916 ft | 547 kts | 116° |
| 2026-04-30 20:22 | 26.51957 | 35.60761 | 35918 ft | 547 kts | 117° |
| 2026-04-30 20:23 | 26.49457 | 35.67253 | 35917 ft | 548 kts | 117° |
| 2026-04-30 20:23 | 26.45946 | 35.76385 | 35920 ft | 549 kts | 117° |
| 2026-04-30 20:24 | 26.42938 | 35.84214 | 35917 ft | 550 kts | 117° |
| 2026-04-30 20:24 | 26.40428 | 35.90739 | 35916 ft | 551 kts | 117° |
| 2026-04-30 20:25 | 26.35869 | 36.02554 | 35916 ft | 551 kts | 117° |
| 2026-04-30 20:26 | 26.31317 | 36.14322 | 35917 ft | 551 kts | 117° |
| 2026-04-30 20:26 | 26.26747 | 36.26094 | 35917 ft | 551 kts | 117° |
| 2026-04-30 20:27 | 26.20658 | 36.41732 | 35917 ft | 550 kts | 117° |
| 2026-04-30 20:28 | 26.13991 | 36.56963 | 35927 ft | 545 kts | 124° |
| 2026-04-30 20:30 | 26.04810 | 36.75374 | 35916 ft | 546 kts | 124° |
| 2026-04-30 20:31 | 25.93838 | 36.97576 | 35916 ft | 546 kts | 124° |
| 2026-04-30 20:32 | 25.84690 | 37.15989 | 35936 ft | 545 kts | 125° |
| 2026-04-30 20:33 | 25.79203 | 37.26994 | 35923 ft | 545 kts | 125° |
| 2026-04-30 20:34 | 25.73700 | 37.38045 | 35928 ft | 545 kts | 125° |
| 2026-04-30 20:35 | 25.68200 | 37.49068 | 35922 ft | 545 kts | 125° |
| 2026-04-30 20:35 | 25.62677 | 37.60109 | 35923 ft | 544 kts | 125° |
| 2026-04-30 20:36 | 25.59027 | 37.67390 | 35940 ft | 544 kts | 125° |
| 2026-04-30 20:37 | 25.53495 | 37.78405 | 35929 ft | 545 kts | 125° |
| 2026-04-30 20:37 | 25.49802 | 37.85741 | 35924 ft | 545 kts | 125° |
| 2026-04-30 20:38 | 25.46130 | 37.93019 | 35927 ft | 545 kts | 125° |
| 2026-04-30 20:38 | 25.42420 | 38.00364 | 35921 ft | 545 kts | 125° |
| 2026-04-30 20:39 | 25.36873 | 38.11338 | 35914 ft | 544 kts | 126° |
| 2026-04-30 20:40 | 25.31336 | 38.22258 | 35942 ft | 542 kts | 126° |
| 2026-04-30 20:40 | 25.27642 | 38.29524 | 35939 ft | 543 kts | 126° |
| 2026-04-30 20:41 | 25.22104 | 38.40408 | 35894 ft | 539 kts | 126° |
| 2026-04-30 20:41 | 25.20266 | 38.44015 | 35655 ft | 538 kts | 126° |
| 2026-04-30 20:41 | 25.18429 | 38.47612 | 35048 ft | 539 kts | 126° |
| 2026-04-30 20:42 | 25.16575 | 38.51244 | 34321 ft | 537 kts | 126° |
| 2026-04-30 20:42 | 25.14741 | 38.54832 | 33544 ft | 537 kts | 126° |
| 2026-04-30 20:42 | 25.11091 | 38.61973 | 32293 ft | 528 kts | 125° |
| 2026-04-30 20:43 | 25.09316 | 38.65449 | 31805 ft | 521 kts | 124° |
| 2026-04-30 20:43 | 25.07543 | 38.68917 | 31323 ft | 513 kts | 124° |
| 2026-04-30 20:43 | 25.05804 | 38.72312 | 30854 ft | 506 kts | 124° |
| 2026-04-30 20:44 | 25.02377 | 38.78989 | 29909 ft | 493 kts | 123° |
| 2026-04-30 20:44 | 25.00711 | 38.82231 | 29446 ft | 486 kts | 123° |
| 2026-04-30 20:44 | 24.97401 | 38.88667 | 28486 ft | 474 kts | 123° |
| 2026-04-30 20:45 | 24.94776 | 38.95203 | 27583 ft | 470 kts | 109° |
| 2026-04-30 20:45 | 24.93873 | 38.98701 | 27124 ft | 476 kts | 107° |
| 2026-04-30 20:45 | 24.93020 | 39.02212 | 26631 ft | 470 kts | 107° |
| 2026-04-30 20:46 | 24.90302 | 39.12790 | 25429 ft | 475 kts | 108° |
| 2026-04-30 20:46 | 24.89363 | 39.16253 | 25215 ft | 462 kts | 109° |
| 2026-04-30 20:47 | 24.87570 | 39.22814 | 24834 ft | 438 kts | 109° |
| 2026-04-30 20:47 | 24.86694 | 39.26011 | 24659 ft | 427 kts | 109° |
| 2026-04-30 20:48 | 24.85029 | 39.32101 | 24316 ft | 407 kts | 109° |
| 2026-04-30 20:48 | 24.84221 | 39.35056 | 24145 ft | 399 kts | 109° |
| 2026-04-30 20:48 | 24.83409 | 39.38018 | 23990 ft | 416 kts | 109° |
| 2026-04-30 20:48 | 24.82556 | 39.41130 | 23621 ft | 428 kts | 109° |
| 2026-04-30 20:49 | 24.81694 | 39.44284 | 23150 ft | 428 kts | 109° |
| 2026-04-30 20:49 | 24.80838 | 39.47418 | 22686 ft | 426 kts | 109° |
| 2026-04-30 20:49 | 24.79996 | 39.50499 | 22196 ft | 423 kts | 109° |
| 2026-04-30 20:50 | 24.78301 | 39.56681 | 21261 ft | 417 kts | 109° |
| 2026-04-30 20:50 | 24.77470 | 39.59711 | 20764 ft | 414 kts | 109° |
| 2026-04-30 20:50 | 24.76635 | 39.62749 | 20281 ft | 410 kts | 109° |
| 2026-04-30 20:50 | 24.75817 | 39.65727 | 19826 ft | 407 kts | 109° |
| 2026-04-30 20:51 | 24.75001 | 39.68687 | 19365 ft | 404 kts | 109° |
| 2026-04-30 20:51 | 24.73304 | 39.74499 | 18399 ft | 390 kts | 119° |
| 2026-04-30 20:51 | 24.71768 | 39.76865 | 17908 ft | 378 kts | 141° |
| 2026-04-30 20:52 | 24.69666 | 39.78532 | 17459 ft | 367 kts | 156° |
| 2026-04-30 20:52 | 24.67331 | 39.79535 | 16951 ft | 356 kts | 171° |
| 2026-04-30 20:52 | 24.62514 | 39.80492 | 16049 ft | 348 kts | 174° |
| 2026-04-30 20:53 | 24.60158 | 39.80962 | 15584 ft | 346 kts | 173° |
| 2026-04-30 20:53 | 24.57795 | 39.81456 | 15107 ft | 345 kts | 172° |
| 2026-04-30 20:53 | 24.55441 | 39.81954 | 14639 ft | 343 kts | 172° |
| 2026-04-30 20:54 | 24.50764 | 39.82946 | 13679 ft | 340 kts | 172° |
| 2026-04-30 20:54 | 24.48461 | 39.83435 | 13263 ft | 337 kts | 171° |
| 2026-04-30 20:54 | 24.46179 | 39.83920 | 13138 ft | 325 kts | 171° |
| 2026-04-30 20:55 | 24.41912 | 39.84826 | 12887 ft | 304 kts | 171° |
| 2026-04-30 20:55 | 24.39850 | 39.85261 | 12654 ft | 298 kts | 171° |
| 2026-04-30 20:55 | 24.37811 | 39.85691 | 12324 ft | 296 kts | 171° |
| 2026-04-30 20:56 | 24.33785 | 39.86541 | 11611 ft | 294 kts | 171° |
| 2026-04-30 20:56 | 24.31767 | 39.86968 | 11241 ft | 294 kts | 171° |
| 2026-04-30 20:56 | 24.27702 | 39.87827 | 10192 ft | 305 kts | 171° |
| 2026-04-30 20:57 | 24.25581 | 39.88266 | 9552 ft | 309 kts | 173° |
| 2026-04-30 20:57 | 24.23450 | 39.88197 | 8832 ft | 306 kts | 196° |
| 2026-04-30 20:57 | 24.23113 | 39.88077 | 6424 ft | 71 kts | 209° |
| 2026-04-30 20:58 | 24.22195 | 39.87320 | 3519 ft | 6 kts | 212° |
| 2026-04-30 20:58 | 24.22159 | 39.87295 | 3521 ft | 6 kts | 212° |
| 2026-04-30 20:58 | 24.22122 | 39.87269 | 3532 ft | 6 kts | 213° |
| 2026-04-30 20:58 | 24.22079 | 39.87238 | 3528 ft | 12 kts | 214° |
| 2026-04-30 20:59 | 24.21916 | 39.87117 | 3619 ft | 15 kts | 215° |
| 2026-04-30 20:59 | 24.21835 | 39.87049 | 3684 ft | 15 kts | 222° |